sensor_id;sensor_type;location;lat;lon;timestamp;temperature;humidity
63039;DHT22;49125;48.812;9.206;2022-10-13T00:00:53;10.60;99.90
63039;DHT22;49125;48.812;9.206;2022-10-13T00:03:19;10.70;99.90
63039;DHT22;49125;48.812;9.206;2022-10-13T00:05:46;10.80;99.90
63039;DHT22;49125;48.812;9.206;2022-10-13T00:08:15;10.90;99.90
63039;DHT22;49125;48.812;9.206;2022-10-13T00:10:43;11.00;99.90
63039;DHT22;49125;48.812;9.206;2022-10-13T00:13:10;11.10;99.90
63039;DHT22;49125;48.812;9.206;2022-10-13T00:15:40;11.10;99.90
63039;DHT22;49125;48.812;9.206;2022-10-13T00:18:06;11.10;99.90
63039;DHT22;49125;48.812;9.206;2022-10-13T00:20:32;11.10;99.90
63039;DHT22;49125;48.812;9.206;2022-10-13T00:22:58;11.10;99.90
63039;DHT22;49125;48.812;9.206;2022-10-13T00:25:23;11.10;99.90
63039;DHT22;49125;48.812;9.206;2022-10-13T00:27:49;11.00;99.90
63039;DHT22;49125;48.812;9.206;2022-10-13T00:30:14;11.00;99.90
63039;DHT22;49125;48.812;9.206;2022-10-13T00:32:40;11.00;99.90
63039;DHT22;49125;48.812;9.206;2022-10-13T00:35:06;11.00;99.90
63039;DHT22;49125;48.812;9.206;2022-10-13T00:37:31;11.10;99.90
63039;DHT22;49125;48.812;9.206;2022-10-13T00:39:57;11.20;99.90
63039;DHT22;49125;48.812;9.206;2022-10-13T00:42:22;11.30;99.90
63039;DHT22;49125;48.812;9.206;2022-10-13T00:45:24;11.30;99.90
63039;DHT22;49125;48.812;9.206;2022-10-13T00:47:56;11.40;99.90
63039;DHT22;49125;48.812;9.206;2022-10-13T00:50:29;11.50;99.90
63039;DHT22;49125;48.812;9.206;2022-10-13T00:52:56;11.40;99.90
63039;DHT22;49125;48.812;9.206;2022-10-13T00:55:26;11.40;99.90
63039;DHT22;49125;48.812;9.206;2022-10-13T00:57:55;11.40;99.90
63039;DHT22;49125;48.812;9.206;2022-10-13T01:00:23;11.40;99.90
63039;DHT22;49125;48.812;9.206;2022-10-13T01:02:50;11.40;99.90
63039;DHT22;49125;48.812;9.206;2022-10-13T01:05:16;11.40;99.90
63039;DHT22;49125;48.812;9.206;2022-10-13T01:07:43;11.40;99.90
63039;DHT22;49125;48.812;9.206;2022-10-13T01:10:13;11.40;99.90
63039;DHT22;49125;48.812;9.206;2022-10-13T01:12:59;11.40;99.90
63039;DHT22;49125;48.812;9.206;2022-10-13T01:15:37;11.40;99.90
63039;DHT22;49125;48.812;9.206;2022-10-13T01:21:46;11.40;99.90
63039;DHT22;49125;48.812;9.206;2022-10-13T01:30:04;11.30;99.90
63039;DHT22;49125;48.812;9.206;2022-10-13T01:32:33;11.30;99.90
63039;DHT22;49125;48.812;9.206;2022-10-13T01:40:22;11.30;99.90
63039;DHT22;49125;48.812;9.206;2022-10-13T01:43:12;11.20;99.90
63039;DHT22;49125;48.812;9.206;2022-10-13T01:45:57;11.20;99.90
63039;DHT22;49125;48.812;9.206;2022-10-13T01:48:27;11.30;99.90
63039;DHT22;49125;48.812;9.206;2022-10-13T01:50:54;11.40;99.90
63039;DHT22;49125;48.812;9.206;2022-10-13T01:53:20;11.40;99.90
63039;DHT22;49125;48.812;9.206;2022-10-13T01:56:04;11.50;99.90
63039;DHT22;49125;48.812;9.206;2022-10-13T01:58:33;11.60;99.90
63039;DHT22;49125;48.812;9.206;2022-10-13T02:09:11;11.70;99.90
63039;DHT22;49125;48.812;9.206;2022-10-13T02:11:45;11.70;99.90
63039;DHT22;49125;48.812;9.206;2022-10-13T02:14:18;11.60;99.90
63039;DHT22;49125;48.812;9.206;2022-10-13T02:16:46;11.60;99.90
63039;DHT22;49125;48.812;9.206;2022-10-13T02:19:15;11.60;99.90
63039;DHT22;49125;48.812;9.206;2022-10-13T02:21:42;11.50;99.90
63039;DHT22;49125;48.812;9.206;2022-10-13T02:24:08;11.50;99.90
63039;DHT22;49125;48.812;9.206;2022-10-13T02:26:34;11.50;99.90
63039;DHT22;49125;48.812;9.206;2022-10-13T02:29:10;11.40;99.90
63039;DHT22;49125;48.812;9.206;2022-10-13T02:31:36;11.40;99.90
63039;DHT22;49125;48.812;9.206;2022-10-13T02:34:02;11.40;99.90
63039;DHT22;49125;48.812;9.206;2022-10-13T02:36:28;11.50;99.90
63039;DHT22;49125;48.812;9.206;2022-10-13T02:38:53;11.50;99.90
63039;DHT22;49125;48.812;9.206;2022-10-13T02:41:19;11.50;99.90
63039;DHT22;49125;48.812;9.206;2022-10-13T02:43:44;11.60;99.90
63039;DHT22;49125;48.812;9.206;2022-10-13T02:46:10;11.70;99.90
63039;DHT22;49125;48.812;9.206;2022-10-13T02:48:35;11.80;99.90
63039;DHT22;49125;48.812;9.206;2022-10-13T02:51:01;11.80;99.90
63039;DHT22;49125;48.812;9.206;2022-10-13T02:53:27;11.80;99.90
63039;DHT22;49125;48.812;9.206;2022-10-13T02:55:52;11.90;99.90
63039;DHT22;49125;48.812;9.206;2022-10-13T02:58:18;11.90;99.90
63039;DHT22;49125;48.812;9.206;2022-10-13T03:00:43;11.90;99.90
63039;DHT22;49125;48.812;9.206;2022-10-13T03:03:10;11.80;99.90
63039;DHT22;49125;48.812;9.206;2022-10-13T03:05:35;11.80;99.90
63039;DHT22;49125;48.812;9.206;2022-10-13T03:08:01;11.70;99.90
63039;DHT22;49125;48.812;9.206;2022-10-13T03:10:26;11.60;99.90
63039;DHT22;49125;48.812;9.206;2022-10-13T03:12:53;11.60;99.90
63039;DHT22;49125;48.812;9.206;2022-10-13T03:15:19;11.60;99.90
63039;DHT22;49125;48.812;9.206;2022-10-13T03:17:45;11.60;99.90
63039;DHT22;49125;48.812;9.206;2022-10-13T03:20:10;11.60;99.90
63039;DHT22;49125;48.812;9.206;2022-10-13T03:22:36;11.60;99.90
63039;DHT22;49125;48.812;9.206;2022-10-13T03:25:01;11.70;99.90
63039;DHT22;49125;48.812;9.206;2022-10-13T03:27:28;11.80;99.90
63039;DHT22;49125;48.812;9.206;2022-10-13T03:29:53;11.80;99.90
63039;DHT22;49125;48.812;9.206;2022-10-13T03:32:19;11.90;99.90
63039;DHT22;49125;48.812;9.206;2022-10-13T03:34:44;12.00;99.90
63039;DHT22;49125;48.812;9.206;2022-10-13T03:37:10;12.00;99.90
63039;DHT22;49125;48.812;9.206;2022-10-13T03:39:36;12.10;99.90
63039;DHT22;49125;48.812;9.206;2022-10-13T03:42:01;12.10;99.90
63039;DHT22;49125;48.812;9.206;2022-10-13T03:44:27;12.10;99.90
63039;DHT22;49125;48.812;9.206;2022-10-13T03:46:52;12.10;99.90
63039;DHT22;49125;48.812;9.206;2022-10-13T03:49:18;12.10;99.90
63039;DHT22;49125;48.812;9.206;2022-10-13T03:51:44;12.10;99.90
63039;DHT22;49125;48.812;9.206;2022-10-13T03:54:11;12.00;99.90
63039;DHT22;49125;48.812;9.206;2022-10-13T03:56:37;12.00;99.90
63039;DHT22;49125;48.812;9.206;2022-10-13T03:59:04;12.00;99.90
63039;DHT22;49125;48.812;9.206;2022-10-13T04:01:30;12.00;99.90
63039;DHT22;49125;48.812;9.206;2022-10-13T04:03:57;12.10;99.90
63039;DHT22;49125;48.812;9.206;2022-10-13T04:06:24;12.20;99.90
63039;DHT22;49125;48.812;9.206;2022-10-13T04:08:51;12.20;99.90
63039;DHT22;49125;48.812;9.206;2022-10-13T04:11:16;12.30;99.90
63039;DHT22;49125;48.812;9.206;2022-10-13T04:13:43;12.30;99.90
63039;DHT22;49125;48.812;9.206;2022-10-13T04:16:14;12.30;99.90
63039;DHT22;49125;48.812;9.206;2022-10-13T04:18:40;12.30;99.90
63039;DHT22;49125;48.812;9.206;2022-10-13T04:21:08;12.40;99.90
63039;DHT22;49125;48.812;9.206;2022-10-13T04:23:35;12.40;99.90
63039;DHT22;49125;48.812;9.206;2022-10-13T04:26:00;12.40;99.90
63039;DHT22;49125;48.812;9.206;2022-10-13T04:28:26;12.40;99.90
63039;DHT22;49125;48.812;9.206;2022-10-13T04:30:51;12.40;99.90
63039;DHT22;49125;48.812;9.206;2022-10-13T04:33:17;12.30;99.90
63039;DHT22;49125;48.812;9.206;2022-10-13T04:35:43;12.30;99.90
63039;DHT22;49125;48.812;9.206;2022-10-13T04:38:08;12.30;99.90
63039;DHT22;49125;48.812;9.206;2022-10-13T04:40:34;12.20;99.90
63039;DHT22;49125;48.812;9.206;2022-10-13T04:43:00;12.30;99.90
63039;DHT22;49125;48.812;9.206;2022-10-13T04:45:26;12.20;99.90
63039;DHT22;49125;48.812;9.206;2022-10-13T04:47:51;12.30;99.90
63039;DHT22;49125;48.812;9.206;2022-10-13T04:50:17;12.20;99.90
63039;DHT22;49125;48.812;9.206;2022-10-13T04:52:43;12.30;99.90
63039;DHT22;49125;48.812;9.206;2022-10-13T04:55:09;12.20;99.90
63039;DHT22;49125;48.812;9.206;2022-10-13T04:57:35;12.20;99.90
63039;DHT22;49125;48.812;9.206;2022-10-13T05:00:00;12.20;99.90
63039;DHT22;49125;48.812;9.206;2022-10-13T05:02:26;12.20;99.90
63039;DHT22;49125;48.812;9.206;2022-10-13T05:04:51;12.20;99.90
63039;DHT22;49125;48.812;9.206;2022-10-13T05:07:17;12.10;99.90
63039;DHT22;49125;48.812;9.206;2022-10-13T05:09:42;12.00;99.90
63039;DHT22;49125;48.812;9.206;2022-10-13T05:12:08;12.00;99.90
63039;DHT22;49125;48.812;9.206;2022-10-13T05:14:34;11.90;99.90
63039;DHT22;49125;48.812;9.206;2022-10-13T05:17:00;11.90;99.90
63039;DHT22;49125;48.812;9.206;2022-10-13T05:19:26;11.90;99.90
63039;DHT22;49125;48.812;9.206;2022-10-13T05:21:52;11.90;99.90
63039;DHT22;49125;48.812;9.206;2022-10-13T05:24:17;11.90;99.90
63039;DHT22;49125;48.812;9.206;2022-10-13T05:26:45;11.80;99.90
63039;DHT22;49125;48.812;9.206;2022-10-13T05:29:10;11.80;99.90
63039;DHT22;49125;48.812;9.206;2022-10-13T05:31:36;11.90;99.90
63039;DHT22;49125;48.812;9.206;2022-10-13T05:34:02;11.90;99.90
63039;DHT22;49125;48.812;9.206;2022-10-13T05:36:33;12.00;99.90
63039;DHT22;49125;48.812;9.206;2022-10-13T05:39:01;12.00;99.90
63039;DHT22;49125;48.812;9.206;2022-10-13T05:41:28;12.10;99.90
63039;DHT22;49125;48.812;9.206;2022-10-13T05:43:57;12.20;99.90
63039;DHT22;49125;48.812;9.206;2022-10-13T05:46:23;12.20;99.90
63039;DHT22;49125;48.812;9.206;2022-10-13T05:48:49;12.30;99.90
63039;DHT22;49125;48.812;9.206;2022-10-13T05:51:18;12.30;99.90
63039;DHT22;49125;48.812;9.206;2022-10-13T05:53:48;12.30;99.90
63039;DHT22;49125;48.812;9.206;2022-10-13T05:56:18;12.30;99.90
63039;DHT22;49125;48.812;9.206;2022-10-13T05:58:52;12.40;99.90
63039;DHT22;49125;48.812;9.206;2022-10-13T06:01:22;12.40;99.90
63039;DHT22;49125;48.812;9.206;2022-10-13T06:03:51;12.40;99.90
63039;DHT22;49125;48.812;9.206;2022-10-13T06:06:17;12.40;99.90
63039;DHT22;49125;48.812;9.206;2022-10-13T06:08:42;12.40;99.90
63039;DHT22;49125;48.812;9.206;2022-10-13T06:11:08;12.40;99.90
63039;DHT22;49125;48.812;9.206;2022-10-13T06:13:34;12.40;99.90
63039;DHT22;49125;48.812;9.206;2022-10-13T06:16:00;12.50;99.90
63039;DHT22;49125;48.812;9.206;2022-10-13T06:18:25;12.60;99.90
63039;DHT22;49125;48.812;9.206;2022-10-13T06:20:51;12.60;99.90
63039;DHT22;49125;48.812;9.206;2022-10-13T06:23:16;12.70;99.90
63039;DHT22;49125;48.812;9.206;2022-10-13T06:25:49;12.80;99.90
63039;DHT22;49125;48.812;9.206;2022-10-13T06:28:15;12.90;99.90
63039;DHT22;49125;48.812;9.206;2022-10-13T06:30:43;13.00;99.90
63039;DHT22;49125;48.812;9.206;2022-10-13T06:33:11;13.00;99.90
63039;DHT22;49125;48.812;9.206;2022-10-13T06:35:36;13.10;99.90
63039;DHT22;49125;48.812;9.206;2022-10-13T06:38:02;13.10;99.90
63039;DHT22;49125;48.812;9.206;2022-10-13T06:40:27;13.20;99.90
63039;DHT22;49125;48.812;9.206;2022-10-13T06:42:53;13.20;99.90
63039;DHT22;49125;48.812;9.206;2022-10-13T06:45:18;13.30;99.90
63039;DHT22;49125;48.812;9.206;2022-10-13T06:47:44;13.30;99.90
63039;DHT22;49125;48.812;9.206;2022-10-13T06:50:10;13.30;99.90
63039;DHT22;49125;48.812;9.206;2022-10-13T06:52:36;13.40;99.90
63039;DHT22;49125;48.812;9.206;2022-10-13T06:55:03;13.40;99.90
63039;DHT22;49125;48.812;9.206;2022-10-13T06:57:29;13.50;99.90
63039;DHT22;49125;48.812;9.206;2022-10-13T06:59:54;13.50;99.90
63039;DHT22;49125;48.812;9.206;2022-10-13T07:02:20;13.50;99.90
63039;DHT22;49125;48.812;9.206;2022-10-13T07:04:46;13.50;99.90
63039;DHT22;49125;48.812;9.206;2022-10-13T07:07:12;13.50;99.90
63039;DHT22;49125;48.812;9.206;2022-10-13T07:09:38;13.50;99.90
63039;DHT22;49125;48.812;9.206;2022-10-13T07:12:03;13.60;99.90
63039;DHT22;49125;48.812;9.206;2022-10-13T07:14:29;13.60;99.90
63039;DHT22;49125;48.812;9.206;2022-10-13T07:16:54;13.70;99.90
63039;DHT22;49125;48.812;9.206;2022-10-13T07:19:20;13.70;99.90
63039;DHT22;49125;48.812;9.206;2022-10-13T07:21:46;13.80;99.90
63039;DHT22;49125;48.812;9.206;2022-10-13T07:24:11;13.80;99.90
63039;DHT22;49125;48.812;9.206;2022-10-13T07:26:37;13.90;99.90
63039;DHT22;49125;48.812;9.206;2022-10-13T07:29:03;13.90;99.90
63039;DHT22;49125;48.812;9.206;2022-10-13T07:31:29;13.90;99.90
63039;DHT22;49125;48.812;9.206;2022-10-13T07:33:56;13.90;99.90
63039;DHT22;49125;48.812;9.206;2022-10-13T07:36:22;14.00;99.90
63039;DHT22;49125;48.812;9.206;2022-10-13T07:38:48;14.10;99.90
63039;DHT22;49125;48.812;9.206;2022-10-13T07:41:13;14.10;99.90
63039;DHT22;49125;48.812;9.206;2022-10-13T07:43:39;14.20;99.90
63039;DHT22;49125;48.812;9.206;2022-10-13T07:46:06;14.30;99.90
63039;DHT22;49125;48.812;9.206;2022-10-13T07:48:32;14.40;99.90
63039;DHT22;49125;48.812;9.206;2022-10-13T07:51:00;14.50;99.90
63039;DHT22;49125;48.812;9.206;2022-10-13T07:53:27;14.50;99.90
63039;DHT22;49125;48.812;9.206;2022-10-13T07:55:52;14.60;99.90
63039;DHT22;49125;48.812;9.206;2022-10-13T07:58:18;14.60;99.90
63039;DHT22;49125;48.812;9.206;2022-10-13T08:00:43;14.70;99.90
63039;DHT22;49125;48.812;9.206;2022-10-13T08:03:09;14.90;99.90
63039;DHT22;49125;48.812;9.206;2022-10-13T08:05:36;15.00;99.90
63039;DHT22;49125;48.812;9.206;2022-10-13T08:08:02;15.20;99.90
63039;DHT22;49125;48.812;9.206;2022-10-13T08:10:28;15.40;99.90
63039;DHT22;49125;48.812;9.206;2022-10-13T08:12:53;15.50;99.90
63039;DHT22;49125;48.812;9.206;2022-10-13T08:15:19;15.70;99.90
63039;DHT22;49125;48.812;9.206;2022-10-13T08:17:45;15.80;99.90
63039;DHT22;49125;48.812;9.206;2022-10-13T08:20:11;15.90;99.90
63039;DHT22;49125;48.812;9.206;2022-10-13T08:22:36;16.00;99.90
63039;DHT22;49125;48.812;9.206;2022-10-13T08:25:02;15.90;99.90
63039;DHT22;49125;48.812;9.206;2022-10-13T08:27:29;15.90;99.90
63039;DHT22;49125;48.812;9.206;2022-10-13T08:29:55;15.90;99.90
63039;DHT22;49125;48.812;9.206;2022-10-13T08:32:21;15.90;99.90
63039;DHT22;49125;48.812;9.206;2022-10-13T08:34:48;16.00;99.90
63039;DHT22;49125;48.812;9.206;2022-10-13T08:37:15;16.00;99.90
63039;DHT22;49125;48.812;9.206;2022-10-13T08:39:41;16.20;99.90
63039;DHT22;49125;48.812;9.206;2022-10-13T08:42:20;16.40;99.90
63039;DHT22;49125;48.812;9.206;2022-10-13T08:44:59;16.60;99.90
63039;DHT22;49125;48.812;9.206;2022-10-13T08:49:54;17.00;99.90
63039;DHT22;49125;48.812;9.206;2022-10-13T08:52:25;17.20;99.90
63039;DHT22;49125;48.812;9.206;2022-10-13T08:54:53;17.30;99.90
63039;DHT22;49125;48.812;9.206;2022-10-13T08:57:20;17.30;99.90
63039;DHT22;49125;48.812;9.206;2022-10-13T08:59:47;17.40;99.90
63039;DHT22;49125;48.812;9.206;2022-10-13T09:02:22;17.60;99.90
63039;DHT22;49125;48.812;9.206;2022-10-13T09:04:49;17.80;99.90
63039;DHT22;49125;48.812;9.206;2022-10-13T09:07:17;17.90;99.90
63039;DHT22;49125;48.812;9.206;2022-10-13T09:09:44;18.10;99.90
63039;DHT22;49125;48.812;9.206;2022-10-13T09:12:11;17.90;99.90
63039;DHT22;49125;48.812;9.206;2022-10-13T09:14:39;18.00;99.90
63039;DHT22;49125;48.812;9.206;2022-10-13T09:17:23;18.10;99.90
63039;DHT22;49125;48.812;9.206;2022-10-13T09:20:24;18.30;99.90
63039;DHT22;49125;48.812;9.206;2022-10-13T09:23:17;18.40;99.90
63039;DHT22;49125;48.812;9.206;2022-10-13T09:25:45;18.40;99.90
63039;DHT22;49125;48.812;9.206;2022-10-13T09:28:23;18.40;99.70
63039;DHT22;49125;48.812;9.206;2022-10-13T09:31:21;18.40;99.80
63039;DHT22;49125;48.812;9.206;2022-10-13T09:33:57;18.50;99.80
63039;DHT22;49125;48.812;9.206;2022-10-13T09:36:23;18.60;99.70
63039;DHT22;49125;48.812;9.206;2022-10-13T09:39:13;18.60;99.50
63039;DHT22;49125;48.812;9.206;2022-10-13T09:41:41;18.50;99.70
63039;DHT22;49125;48.812;9.206;2022-10-13T09:44:17;18.50;99.90
63039;DHT22;49125;48.812;9.206;2022-10-13T09:49:32;18.40;99.70
63039;DHT22;49125;48.812;9.206;2022-10-13T09:54:49;18.40;99.50
63039;DHT22;49125;48.812;9.206;2022-10-13T10:00:04;18.80;99.90
63039;DHT22;49125;48.812;9.206;2022-10-13T10:02:44;18.90;99.90
63039;DHT22;49125;48.812;9.206;2022-10-13T10:08:32;19.20;99.60
63039;DHT22;49125;48.812;9.206;2022-10-13T10:11:03;19.10;99.30
63039;DHT22;49125;48.812;9.206;2022-10-13T10:13:30;19.10;99.10
63039;DHT22;49125;48.812;9.206;2022-10-13T10:16:08;19.10;98.70
63039;DHT22;49125;48.812;9.206;2022-10-13T10:18:56;19.10;98.70
63039;DHT22;49125;48.812;9.206;2022-10-13T10:27:04;19.00;98.80
63039;DHT22;49125;48.812;9.206;2022-10-13T10:29:59;19.00;99.40
63039;DHT22;49125;48.812;9.206;2022-10-13T10:35:01;19.10;98.90
63039;DHT22;49125;48.812;9.206;2022-10-13T10:40:15;19.00;99.70
63039;DHT22;49125;48.812;9.206;2022-10-13T10:45:37;18.90;99.30
63039;DHT22;49125;48.812;9.206;2022-10-13T10:48:33;18.80;99.30
63039;DHT22;49125;48.812;9.206;2022-10-13T10:51:00;18.80;98.90
63039;DHT22;49125;48.812;9.206;2022-10-13T10:56:29;18.90;99.30
63039;DHT22;49125;48.812;9.206;2022-10-13T11:07:13;19.30;98.30
63039;DHT22;49125;48.812;9.206;2022-10-13T11:15:02;19.30;98.70
63039;DHT22;49125;48.812;9.206;2022-10-13T11:17:29;19.30;98.30
63039;DHT22;49125;48.812;9.206;2022-10-13T11:19:56;19.20;98.10
63039;DHT22;49125;48.812;9.206;2022-10-13T11:27:55;19.80;98.60
63039;DHT22;49125;48.812;9.206;2022-10-13T11:30:42;19.90;98.20
63039;DHT22;49125;48.812;9.206;2022-10-13T11:41:33;19.60;97.90
63039;DHT22;49125;48.812;9.206;2022-10-13T11:44:09;19.50;97.80
63039;DHT22;49125;48.812;9.206;2022-10-13T11:46:54;19.40;97.80
63039;DHT22;49125;48.812;9.206;2022-10-13T11:52:34;19.60;98.00
63039;DHT22;49125;48.812;9.206;2022-10-13T11:55:13;19.60;98.40
63039;DHT22;49125;48.812;9.206;2022-10-13T11:57:40;19.50;97.70
63039;DHT22;49125;48.812;9.206;2022-10-13T12:00:13;19.50;98.00
63039;DHT22;49125;48.812;9.206;2022-10-13T12:02:48;19.80;98.60
63039;DHT22;49125;48.812;9.206;2022-10-13T12:05:26;20.30;98.80
63039;DHT22;49125;48.812;9.206;2022-10-13T12:07:56;20.90;97.30
63039;DHT22;49125;48.812;9.206;2022-10-13T12:12:56;21.20;96.50
63039;DHT22;49125;48.812;9.206;2022-10-13T12:15:30;21.10;96.40
63039;DHT22;49125;48.812;9.206;2022-10-13T12:17:56;20.90;96.10
63039;DHT22;49125;48.812;9.206;2022-10-13T12:20:25;20.90;96.50
63039;DHT22;49125;48.812;9.206;2022-10-13T12:22:53;20.90;96.00
63039;DHT22;49125;48.812;9.206;2022-10-13T12:25:22;21.00;96.90
63039;DHT22;49125;48.812;9.206;2022-10-13T12:27:50;21.10;95.80
63039;DHT22;49125;48.812;9.206;2022-10-13T12:30:30;21.10;95.90
63039;DHT22;49125;48.812;9.206;2022-10-13T12:32:58;21.20;96.20
63039;DHT22;49125;48.812;9.206;2022-10-13T12:35:27;21.60;95.90
63039;DHT22;49125;48.812;9.206;2022-10-13T12:37:54;22.00;95.40
63039;DHT22;49125;48.812;9.206;2022-10-13T12:40:22;22.40;95.50
63039;DHT22;49125;48.812;9.206;2022-10-13T12:42:48;23.10;95.80
63039;DHT22;49125;48.812;9.206;2022-10-13T12:45:22;24.00;94.60
63039;DHT22;49125;48.812;9.206;2022-10-13T12:47:51;24.60;93.60
63039;DHT22;49125;48.812;9.206;2022-10-13T12:50:31;25.00;91.90
63039;DHT22;49125;48.812;9.206;2022-10-13T12:53:05;25.00;91.70
63039;DHT22;49125;48.812;9.206;2022-10-13T12:55:35;25.00;91.10
63039;DHT22;49125;48.812;9.206;2022-10-13T12:58:23;25.10;91.60
63039;DHT22;49125;48.812;9.206;2022-10-13T13:03:39;24.30;90.40
63039;DHT22;49125;48.812;9.206;2022-10-13T13:08:41;23.70;91.00
63039;DHT22;49125;48.812;9.206;2022-10-13T13:11:21;23.60;91.70
63039;DHT22;49125;48.812;9.206;2022-10-13T13:13:47;23.40;91.10
63039;DHT22;49125;48.812;9.206;2022-10-13T13:16:15;23.10;90.80
63039;DHT22;49125;48.812;9.206;2022-10-13T13:18:43;22.80;91.30
63039;DHT22;49125;48.812;9.206;2022-10-13T13:21:11;22.60;91.40
63039;DHT22;49125;48.812;9.206;2022-10-13T13:23:37;22.40;92.50
63039;DHT22;49125;48.812;9.206;2022-10-13T13:26:13;22.20;92.60
63039;DHT22;49125;48.812;9.206;2022-10-13T13:31:11;21.70;92.60
63039;DHT22;49125;48.812;9.206;2022-10-13T13:33:37;21.60;92.90
63039;DHT22;49125;48.812;9.206;2022-10-13T13:36:03;21.40;93.10
63039;DHT22;49125;48.812;9.206;2022-10-13T13:38:30;21.20;92.90
63039;DHT22;49125;48.812;9.206;2022-10-13T13:40:55;21.00;92.80
63039;DHT22;49125;48.812;9.206;2022-10-13T13:43:21;20.70;94.00
63039;DHT22;49125;48.812;9.206;2022-10-13T13:45:46;20.50;93.60
63039;DHT22;49125;48.812;9.206;2022-10-13T13:48:12;20.60;94.20
63039;DHT22;49125;48.812;9.206;2022-10-13T13:50:38;20.50;93.90
63039;DHT22;49125;48.812;9.206;2022-10-13T13:53:04;20.60;94.30
63039;DHT22;49125;48.812;9.206;2022-10-13T13:55:30;20.50;94.50
63039;DHT22;49125;48.812;9.206;2022-10-13T13:57:56;20.50;94.90
63039;DHT22;49125;48.812;9.206;2022-10-13T14:00:23;20.50;94.90
63039;DHT22;49125;48.812;9.206;2022-10-13T14:02:48;20.40;95.50
63039;DHT22;49125;48.812;9.206;2022-10-13T14:05:14;20.20;95.50
63039;DHT22;49125;48.812;9.206;2022-10-13T14:07:40;20.10;95.40
63039;DHT22;49125;48.812;9.206;2022-10-13T14:10:08;20.00;96.10
63039;DHT22;49125;48.812;9.206;2022-10-13T14:12:34;20.00;95.80
63039;DHT22;49125;48.812;9.206;2022-10-13T14:15:00;19.90;96.70
63039;DHT22;49125;48.812;9.206;2022-10-13T14:17:26;20.00;96.90
63039;DHT22;49125;48.812;9.206;2022-10-13T14:19:52;20.00;96.30
63039;DHT22;49125;48.812;9.206;2022-10-13T14:22:18;19.90;97.40
63039;DHT22;49125;48.812;9.206;2022-10-13T14:24:43;19.80;97.60
63039;DHT22;49125;48.812;9.206;2022-10-13T14:27:09;19.80;97.10
63039;DHT22;49125;48.812;9.206;2022-10-13T14:29:35;19.80;96.60
63039;DHT22;49125;48.812;9.206;2022-10-13T14:32:01;19.70;97.00
63039;DHT22;49125;48.812;9.206;2022-10-13T14:34:27;19.80;97.40
63039;DHT22;49125;48.812;9.206;2022-10-13T14:36:53;19.80;97.40
63039;DHT22;49125;48.812;9.206;2022-10-13T14:39:18;19.70;97.80
63039;DHT22;49125;48.812;9.206;2022-10-13T14:41:44;19.70;98.50
63039;DHT22;49125;48.812;9.206;2022-10-13T14:44:11;19.60;98.50
63039;DHT22;49125;48.812;9.206;2022-10-13T14:46:38;19.40;98.40
63039;DHT22;49125;48.812;9.206;2022-10-13T14:49:03;19.30;98.50
63039;DHT22;49125;48.812;9.206;2022-10-13T14:51:30;19.20;99.10
63039;DHT22;49125;48.812;9.206;2022-10-13T14:53:56;19.10;99.60
63039;DHT22;49125;48.812;9.206;2022-10-13T14:56:25;18.90;99.40
63039;DHT22;49125;48.812;9.206;2022-10-13T14:58:53;18.80;99.40
63039;DHT22;49125;48.812;9.206;2022-10-13T15:01:19;18.60;99.80
63039;DHT22;49125;48.812;9.206;2022-10-13T15:03:45;18.50;99.90
63039;DHT22;49125;48.812;9.206;2022-10-13T15:06:17;18.40;99.90
63039;DHT22;49125;48.812;9.206;2022-10-13T15:08:43;18.30;99.90
63039;DHT22;49125;48.812;9.206;2022-10-13T15:11:09;18.20;99.90
63039;DHT22;49125;48.812;9.206;2022-10-13T15:13:35;18.00;99.90
63039;DHT22;49125;48.812;9.206;2022-10-13T15:16:01;18.00;99.90
63039;DHT22;49125;48.812;9.206;2022-10-13T15:18:29;18.00;99.90
63039;DHT22;49125;48.812;9.206;2022-10-13T15:20:55;18.10;99.90
63039;DHT22;49125;48.812;9.206;2022-10-13T15:23:21;18.10;99.90
63039;DHT22;49125;48.812;9.206;2022-10-13T15:25:54;18.10;99.90
63039;DHT22;49125;48.812;9.206;2022-10-13T15:28:21;18.10;99.90
63039;DHT22;49125;48.812;9.206;2022-10-13T15:30:47;18.10;99.90
63039;DHT22;49125;48.812;9.206;2022-10-13T15:33:13;18.00;99.90
63039;DHT22;49125;48.812;9.206;2022-10-13T15:35:39;18.00;99.90
63039;DHT22;49125;48.812;9.206;2022-10-13T15:38:04;17.90;99.90
63039;DHT22;49125;48.812;9.206;2022-10-13T15:40:30;17.80;99.90
63039;DHT22;49125;48.812;9.206;2022-10-13T15:42:58;17.80;99.90
63039;DHT22;49125;48.812;9.206;2022-10-13T15:45:24;17.80;99.90
63039;DHT22;49125;48.812;9.206;2022-10-13T15:47:50;17.70;99.90
63039;DHT22;49125;48.812;9.206;2022-10-13T15:50:16;17.60;99.90
63039;DHT22;49125;48.812;9.206;2022-10-13T15:52:43;17.60;99.90
63039;DHT22;49125;48.812;9.206;2022-10-13T15:55:10;17.50;99.90
63039;DHT22;49125;48.812;9.206;2022-10-13T15:57:37;17.40;99.90
63039;DHT22;49125;48.812;9.206;2022-10-13T16:00:07;17.40;99.90
63039;DHT22;49125;48.812;9.206;2022-10-13T16:02:33;17.30;99.90
63039;DHT22;49125;48.812;9.206;2022-10-13T16:04:59;17.20;99.90
63039;DHT22;49125;48.812;9.206;2022-10-13T16:07:30;17.20;99.90
63039;DHT22;49125;48.812;9.206;2022-10-13T16:09:55;17.20;99.90
63039;DHT22;49125;48.812;9.206;2022-10-13T16:12:21;17.10;99.90
63039;DHT22;49125;48.812;9.206;2022-10-13T16:14:48;17.10;99.90
63039;DHT22;49125;48.812;9.206;2022-10-13T16:17:14;17.10;99.90
63039;DHT22;49125;48.812;9.206;2022-10-13T16:19:40;17.00;99.90
63039;DHT22;49125;48.812;9.206;2022-10-13T16:22:05;17.00;99.90
63039;DHT22;49125;48.812;9.206;2022-10-13T16:24:31;17.00;99.90
63039;DHT22;49125;48.812;9.206;2022-10-13T16:26:58;16.90;99.90
63039;DHT22;49125;48.812;9.206;2022-10-13T16:29:24;16.90;99.90
63039;DHT22;49125;48.812;9.206;2022-10-13T16:31:49;16.80;99.90
63039;DHT22;49125;48.812;9.206;2022-10-13T16:34:15;16.80;99.90
63039;DHT22;49125;48.812;9.206;2022-10-13T16:36:41;16.70;99.90
63039;DHT22;49125;48.812;9.206;2022-10-13T16:39:06;16.70;99.90
63039;DHT22;49125;48.812;9.206;2022-10-13T16:41:32;16.70;99.90
63039;DHT22;49125;48.812;9.206;2022-10-13T16:43:57;16.60;99.90
63039;DHT22;49125;48.812;9.206;2022-10-13T16:46:23;16.60;99.90
63039;DHT22;49125;48.812;9.206;2022-10-13T16:48:48;16.50;99.90
63039;DHT22;49125;48.812;9.206;2022-10-13T16:51:18;16.40;99.90
63039;DHT22;49125;48.812;9.206;2022-10-13T16:53:51;16.30;99.90
63039;DHT22;49125;48.812;9.206;2022-10-13T16:56:17;16.30;99.90
63039;DHT22;49125;48.812;9.206;2022-10-13T16:58:47;16.30;99.90
63039;DHT22;49125;48.812;9.206;2022-10-13T17:01:13;16.20;99.90
63039;DHT22;49125;48.812;9.206;2022-10-13T17:03:41;16.20;99.90
63039;DHT22;49125;48.812;9.206;2022-10-13T17:06:07;16.20;99.90
63039;DHT22;49125;48.812;9.206;2022-10-13T17:08:33;16.10;99.90
63039;DHT22;49125;48.812;9.206;2022-10-13T17:10:59;16.00;99.90